createdAt,value
2022-08-22T00:02:32.927Z,20.82
2022-08-22T00:02:59.903Z,26.24
2022-08-22T00:03:07.476Z,24.58
2022-08-22T00:05:46.575Z,20.77
2022-08-22T00:09:24.518Z,20.88
2022-08-22T00:12:34.332Z,20.92
2022-08-22T00:15:57.672Z,20.90
2022-08-22T00:19:20.995Z,20.88
2022-08-22T00:22:47.623Z,21.03
2022-08-22T00:26:04.221Z,21.08
2022-08-22T00:29:15.527Z,21.09
2022-08-22T00:32:40.013Z,20.95
2022-08-22T00:35:48.166Z,20.86
2022-08-22T00:39:28.348Z,20.89
2022-08-22T00:43:11.958Z,20.88
2022-08-22T00:46:28.961Z,20.84
2022-08-22T00:50:08.019Z,20.84
2022-08-22T00:53:36.791Z,20.86
2022-08-22T00:56:58.360Z,20.81
2022-08-22T01:00:13.094Z,20.50
2022-08-22T01:03:36.902Z,20.48
2022-08-22T01:07:03.025Z,20.57
2022-08-22T01:10:22.837Z,20.58
2022-08-22T01:13:37.784Z,20.61
2022-08-22T01:17:20.438Z,20.61
2022-08-22T01:20:49.705Z,20.57
2022-08-22T01:24:18.057Z,20.51
2022-08-22T01:27:51.079Z,20.45
2022-08-22T01:31:12.212Z,20.40
2022-08-22T01:34:51.533Z,20.37
2022-08-22T01:38:21.511Z,20.38
2022-08-22T01:41:32.034Z,20.38
2022-08-22T01:44:56.918Z,20.27
2022-08-22T01:48:31.542Z,20.08
2022-08-22T01:51:54.996Z,20.08
2022-08-22T01:55:02.772Z,20.10
2022-08-22T01:58:16.946Z,20.15
2022-08-22T02:01:38.002Z,20.15
2022-08-22T02:04:48.209Z,20.09
2022-08-22T02:07:55.423Z,20.12
2022-08-22T02:11:05.937Z,20.11
2022-08-22T02:14:31.553Z,19.98
2022-08-22T02:17:50.382Z,19.75
2022-08-22T02:21:24.409Z,19.63
2022-08-22T02:24:44.629Z,19.65
2022-08-22T02:27:57.375Z,19.77
2022-08-22T02:31:09.329Z,19.85
2022-08-22T02:34:32.214Z,19.92
2022-08-22T02:37:36.666Z,19.96
2022-08-22T02:41:14.140Z,19.94
2022-08-22T02:44:28.493Z,19.99
2022-08-22T02:47:46.057Z,19.97
2022-08-22T02:51:10.391Z,19.92
2022-08-22T02:54:27.863Z,19.89
2022-08-22T02:57:53.287Z,19.86
2022-08-22T03:00:57.530Z,19.83
2022-08-22T03:04:22.351Z,19.80
2022-08-22T03:07:33.480Z,19.78
2022-08-22T03:10:45.682Z,19.73
2022-08-22T03:14:05.554Z,19.77
2022-08-22T03:17:24.215Z,19.78
2022-08-22T03:21:12.779Z,19.70
2022-08-22T03:24:44.399Z,19.73
2022-08-22T03:27:55.092Z,19.73
2022-08-22T03:31:23.441Z,19.68
2022-08-22T03:34:26.990Z,19.59
2022-08-22T03:37:31.305Z,19.56
2022-08-22T03:40:42.766Z,19.52
2022-08-22T03:43:59.014Z,19.52
2022-08-22T03:47:18.474Z,19.45
2022-08-22T03:50:46.308Z,19.42
2022-08-22T03:54:15.305Z,19.31
2022-08-22T03:57:31.964Z,19.21
2022-08-22T04:00:48.602Z,19.15
2022-08-22T04:04:31.601Z,19.12
2022-08-22T04:08:00.003Z,19.11
2022-08-22T04:11:21.450Z,18.98
2022-08-22T04:14:35.959Z,18.76
2022-08-22T04:18:08.415Z,18.68
2022-08-22T04:21:35.346Z,18.78
2022-08-22T04:24:48.970Z,18.82
2022-08-22T04:28:00.177Z,18.76
2022-08-22T04:31:10.171Z,18.73
2022-08-22T04:34:22.321Z,18.73
2022-08-22T04:37:40.443Z,18.70
2022-08-22T04:40:54.189Z,18.62
2022-08-22T04:44:05.722Z,18.55
2022-08-22T04:47:28.507Z,18.49
2022-08-22T04:50:45.474Z,18.53
2022-08-22T04:53:52.542Z,18.53
2022-08-22T04:57:51.591Z,18.62
2022-08-22T05:01:15.324Z,18.65
2022-08-22T05:04:36.817Z,18.70
2022-08-22T05:07:47.035Z,18.75
2022-08-22T05:10:50.612Z,18.82
2022-08-22T05:13:57.398Z,18.84
2022-08-22T05:17:00.243Z,18.87
2022-08-22T05:20:12.085Z,18.92
2022-08-22T05:23:20.269Z,18.98
2022-08-22T05:26:22.169Z,19.10
2022-08-22T05:29:28.695Z,19.20
2022-08-22T05:32:38.175Z,19.27
2022-08-22T05:35:49.539Z,19.36
2022-08-22T05:39:00.492Z,19.47
2022-08-22T05:42:03.705Z,19.55
2022-08-22T05:45:08.534Z,19.59
2022-08-22T05:48:22.648Z,19.64
2022-08-22T05:51:30.452Z,19.74
2022-08-22T05:54:36.450Z,19.79
2022-08-22T05:57:42.287Z,19.75
2022-08-22T06:00:51.984Z,19.87
2022-08-22T06:03:59.393Z,19.86
2022-08-22T06:07:18.162Z,19.99
2022-08-22T06:10:31.031Z,20.13
2022-08-22T06:13:41.443Z,20.26
2022-08-22T06:16:54.431Z,20.42
2022-08-22T06:19:56.026Z,20.62
2022-08-22T06:23:01.829Z,20.77
2022-08-22T06:26:05.411Z,20.86
2022-08-22T06:29:08.722Z,20.95
2022-08-22T06:32:16.223Z,21.08
2022-08-22T06:35:29.762Z,21.16
2022-08-22T06:38:34.802Z,21.18
2022-08-22T06:41:42.361Z,21.27
2022-08-22T06:44:59.701Z,21.40
2022-08-22T06:48:07.355Z,21.56
2022-08-22T06:51:12.324Z,21.66
2022-08-22T06:54:23.567Z,21.74
2022-08-22T06:57:43.712Z,21.84
2022-08-22T07:01:05.679Z,21.96
2022-08-22T07:04:12.963Z,22.08
2022-08-22T07:07:18.744Z,22.01
2022-08-22T07:10:21.969Z,22.05
2022-08-22T07:13:25.412Z,22.24
2022-08-22T07:16:33.851Z,22.41
2022-08-22T07:19:41.561Z,22.59
2022-08-22T07:22:54.195Z,22.71
2022-08-22T07:26:26.870Z,22.90
2022-08-22T07:29:54.246Z,23.02
2022-08-22T07:33:15.297Z,23.06
2022-08-22T07:36:48.983Z,23.15
2022-08-22T07:40:00.822Z,23.19
2022-08-22T07:43:33.294Z,23.39
2022-08-22T07:46:48.226Z,23.59
2022-08-22T07:49:54.901Z,23.80
2022-08-22T07:53:04.915Z,23.81
2022-08-22T07:56:17.754Z,23.89
2022-08-22T07:59:21.350Z,24.02
2022-08-22T08:02:24.004Z,24.09
2022-08-22T08:05:28.480Z,24.14
2022-08-22T08:08:41.507Z,24.01
2022-08-22T08:11:44.853Z,24.04
2022-08-22T08:14:53.306Z,24.05
2022-08-22T08:18:00.363Z,24.16
2022-08-22T08:21:08.409Z,24.43
2022-08-22T08:24:16.148Z,24.84
2022-08-22T08:27:40.801Z,24.88
2022-08-22T08:30:53.659Z,25.17
2022-08-22T08:34:24.323Z,25.17
2022-08-22T08:37:37.199Z,25.10
2022-08-22T08:41:24.250Z,25.46
2022-08-22T08:44:44.322Z,25.76
2022-08-22T08:48:24.930Z,25.90
2022-08-22T08:52:03.829Z,25.87
2022-08-22T08:55:22.006Z,25.66
2022-08-22T08:58:55.097Z,25.72
2022-08-22T09:02:03.993Z,26.01
2022-08-22T09:05:19.546Z,26.29
2022-08-22T09:08:59.574Z,26.30
2022-08-22T09:12:08.514Z,26.25
2022-08-22T09:15:32.315Z,26.56
2022-08-22T09:18:48.447Z,26.51
2022-08-22T09:22:02.278Z,26.49
2022-08-22T09:25:25.192Z,26.62
2022-08-22T09:28:34.731Z,26.74
2022-08-22T09:31:55.889Z,27.00
2022-08-22T09:35:15.090Z,27.01
2022-08-22T09:38:51.365Z,27.08
2022-08-22T09:42:21.047Z,27.22
2022-08-22T09:46:07.397Z,27.70
2022-08-22T09:49:17.820Z,27.34
2022-08-22T09:52:43.741Z,27.37
2022-08-22T09:56:15.303Z,27.48
2022-08-22T09:59:44.775Z,27.58
2022-08-22T10:03:10.946Z,27.84
2022-08-22T10:06:20.864Z,28.15
2022-08-22T10:09:31.326Z,28.14
2022-08-22T10:12:59.531Z,28.08
2022-08-22T10:16:37.112Z,28.05
2022-08-22T10:19:47.521Z,28.44
2022-08-22T10:23:17.657Z,28.95
2022-08-22T10:26:50.705Z,29.01
2022-08-22T10:30:04.347Z,28.52
2022-08-22T10:33:20.237Z,28.62
2022-08-22T10:36:37.798Z,28.66
2022-08-22T10:39:46.556Z,28.83
2022-08-22T10:42:59.468Z,29.13
2022-08-22T10:46:06.958Z,28.58
2022-08-22T10:49:39.153Z,28.77
2022-08-22T10:53:15.127Z,28.89
2022-08-22T10:56:34.919Z,29.21
2022-08-22T10:59:56.532Z,29.60
2022-08-22T11:03:23.420Z,29.86
2022-08-22T11:06:50.303Z,30.11
2022-08-22T11:09:59.535Z,30.09
2022-08-22T11:13:14.909Z,30.07
2022-08-22T11:16:19.265Z,30.04
2022-08-22T11:19:37.441Z,30.14
2022-08-22T11:22:59.339Z,30.16
2022-08-22T11:26:47.272Z,30.28
2022-08-22T11:30:18.122Z,30.36
2022-08-22T11:33:47.438Z,30.58
2022-08-22T11:36:56.421Z,30.18
2022-08-22T11:40:29.339Z,30.18
2022-08-22T11:43:39.775Z,29.86
2022-08-22T11:46:45.643Z,29.48
2022-08-22T11:50:02.562Z,29.88
2022-08-22T11:53:20.270Z,30.36
2022-08-22T11:56:41.683Z,30.89
2022-08-22T11:59:43.421Z,31.10
2022-08-22T12:03:19.627Z,30.71
2022-08-22T12:06:59.041Z,30.77
2022-08-22T12:10:13.833Z,30.68
2022-08-22T12:13:49.162Z,30.95
2022-08-22T12:17:50.823Z,31.31
2022-08-22T12:21:01.365Z,31.49
2022-08-22T12:24:20.835Z,31.38
2022-08-22T12:27:29.298Z,31.27
2022-08-22T12:31:07.437Z,30.62
2022-08-22T12:34:28.372Z,30.72
2022-08-22T12:37:52.179Z,31.10
2022-08-22T12:41:36.096Z,31.28
2022-08-22T12:45:13.037Z,31.56
2022-08-22T12:48:35.682Z,31.75
2022-08-22T12:51:58.925Z,31.87
2022-08-22T12:55:27.328Z,31.74
2022-08-22T12:58:46.052Z,31.03
2022-08-22T13:01:56.594Z,31.01
2022-08-22T13:05:09.136Z,31.12
2022-08-22T13:08:20.007Z,30.96
2022-08-22T13:11:23.650Z,30.65
2022-08-22T13:14:27.656Z,30.55
2022-08-22T13:17:29.949Z,30.57
2022-08-22T13:20:37.382Z,30.17
2022-08-22T13:23:44.770Z,29.93
2022-08-22T13:26:55.369Z,30.15
2022-08-22T13:30:04.590Z,30.77
2022-08-22T13:33:10.933Z,31.18
2022-08-22T13:36:16.911Z,31.54
2022-08-22T13:39:19.752Z,31.75
2022-08-22T13:42:30.961Z,31.70
2022-08-22T13:45:36.043Z,31.86
2022-08-22T13:48:55.725Z,31.94
2022-08-22T13:52:31.666Z,32.31
2022-08-22T13:55:45.352Z,32.18
2022-08-22T13:58:56.337Z,31.98
2022-08-22T14:02:15.268Z,32.08
2022-08-22T14:05:25.110Z,31.96
2022-08-22T14:08:31.738Z,31.71
2022-08-22T14:11:45.240Z,31.33
2022-08-22T14:14:54.247Z,31.07
2022-08-22T14:18:03.378Z,31.43
2022-08-22T14:21:40.074Z,31.93
2022-08-22T14:24:47.701Z,32.10
2022-08-22T14:28:01.285Z,31.83
2022-08-22T14:31:13.774Z,31.84
2022-08-22T14:34:16.203Z,31.88
2022-08-22T14:37:23.585Z,31.64
2022-08-22T14:40:29.186Z,31.78
2022-08-22T14:43:33.645Z,31.52
2022-08-22T14:46:45.254Z,32.07
2022-08-22T14:49:55.554Z,32.49
2022-08-22T14:53:18.211Z,32.73
2022-08-22T14:56:21.570Z,32.70
2022-08-22T14:59:35.169Z,32.90
2022-08-22T15:02:37.197Z,33.09
2022-08-22T15:05:45.649Z,32.92
2022-08-22T15:08:50.562Z,32.90
2022-08-22T15:11:53.345Z,33.08
2022-08-22T15:15:12.782Z,33.06
2022-08-22T15:18:33.588Z,32.94
2022-08-22T15:21:41.302Z,33.00
2022-08-22T15:24:56.351Z,32.64
2022-08-22T15:28:06.767Z,33.15
2022-08-22T15:31:18.756Z,33.27
2022-08-22T15:34:34.267Z,32.96
2022-08-22T15:37:55.437Z,33.06
2022-08-22T15:41:25.276Z,32.95
2022-08-22T15:44:37.245Z,33.01
2022-08-22T15:47:46.901Z,33.14
2022-08-22T15:51:04.659Z,33.33
2022-08-22T15:54:25.339Z,33.43
2022-08-22T15:57:29.082Z,33.67
2022-08-22T16:00:45.214Z,33.53
2022-08-22T16:03:58.513Z,33.13
2022-08-22T16:07:01.453Z,33.07
2022-08-22T16:10:09.649Z,33.08
2022-08-22T16:13:26.382Z,33.21
2022-08-22T16:16:49.811Z,32.81
2022-08-22T16:20:19.984Z,33.27
2022-08-22T16:23:22.525Z,32.86
2022-08-22T16:26:30.056Z,32.94
2022-08-22T16:29:41.239Z,32.53
2022-08-22T16:32:51.742Z,32.12
2022-08-22T16:36:21.110Z,31.82
2022-08-22T16:39:22.737Z,31.44
2022-08-22T16:42:35.530Z,31.33
2022-08-22T16:45:40.781Z,31.50
2022-08-22T16:48:42.261Z,31.44
2022-08-22T16:52:25.900Z,31.56
2022-08-22T16:55:40.859Z,31.48
2022-08-22T16:59:06.085Z,31.49
2022-08-22T17:02:28.872Z,31.36
2022-08-22T17:06:23.104Z,31.16
2022-08-22T17:09:43.050Z,31.09
2022-08-22T17:13:17.137Z,30.95
2022-08-22T17:16:38.100Z,30.93
2022-08-22T17:19:42.486Z,30.82
2022-08-22T17:23:00.086Z,30.71
2022-08-22T17:26:22.789Z,30.73
2022-08-22T17:29:47.702Z,30.70
2022-08-22T17:33:10.886Z,30.69
2022-08-22T17:36:26.708Z,30.71
2022-08-22T17:39:36.069Z,30.66
2022-08-22T17:42:58.679Z,30.51
2022-08-22T17:46:17.276Z,30.43
2022-08-22T17:49:41.865Z,30.34
2022-08-22T17:52:59.549Z,30.24
2022-08-22T17:56:14.392Z,30.18
2022-08-22T17:59:20.612Z,30.04
2022-08-22T18:02:28.621Z,29.94
2022-08-22T18:05:36.397Z,29.89
2022-08-22T18:12:23.062Z,29.69
2022-08-22T18:15:47.219Z,29.62
2022-08-22T18:19:00.861Z,29.55
2022-08-22T18:22:10.843Z,29.45
2022-08-22T18:25:18.024Z,29.36
2022-08-22T18:28:34.009Z,29.27
2022-08-22T18:31:51.160Z,29.10
2022-08-22T18:35:15.634Z,29.06
2022-08-22T18:38:30.009Z,28.96
2022-08-22T18:41:38.689Z,28.89
2022-08-22T18:44:44.513Z,28.79
2022-08-22T18:47:55.748Z,28.71
2022-08-22T18:51:27.570Z,28.61
2022-08-22T18:54:44.844Z,28.52
2022-08-22T18:58:05.034Z,28.44
2022-08-22T19:01:36.286Z,28.35
2022-08-22T19:05:07.132Z,28.22
2022-08-22T19:08:30.303Z,28.17
2022-08-22T19:11:57.930Z,28.10
2022-08-22T19:15:34.436Z,28.02
2022-08-22T19:18:55.694Z,27.89
2022-08-22T19:22:21.730Z,27.80
2022-08-22T19:25:26.376Z,27.73
2022-08-22T19:28:36.005Z,27.69
2022-08-22T19:31:41.077Z,27.62
2022-08-22T19:34:46.887Z,27.52
2022-08-22T19:38:01.151Z,27.41
2022-08-22T19:41:03.675Z,27.41
2022-08-22T19:44:31.245Z,27.39
2022-08-22T19:47:38.380Z,27.33
2022-08-22T19:50:40.103Z,27.24
2022-08-22T19:54:05.943Z,27.20
2022-08-22T19:57:19.181Z,27.13
2022-08-22T20:00:41.088Z,27.02
2022-08-22T20:03:48.582Z,26.94
2022-08-22T20:07:15.359Z,26.89
2022-08-22T20:10:46.909Z,26.83
2022-08-22T20:13:49.668Z,26.77
2022-08-22T20:17:05.412Z,26.71
2022-08-22T20:20:35.760Z,26.67
2022-08-22T20:23:37.661Z,26.59
2022-08-22T20:26:57.336Z,26.57
2022-08-22T20:30:13.294Z,26.48
2022-08-22T20:33:26.351Z,26.42
2022-08-22T20:36:29.531Z,26.39
2022-08-22T20:39:58.973Z,26.35
2022-08-22T20:43:10.631Z,26.28
2022-08-22T20:46:24.032Z,26.20
2022-08-22T20:49:32.345Z,26.15
2022-08-22T20:52:44.297Z,26.11
2022-08-22T20:55:55.881Z,26.08
2022-08-22T20:59:01.016Z,26.00
2022-08-22T21:02:12.257Z,25.93
2022-08-22T21:05:13.617Z,25.88
2022-08-22T21:08:24.296Z,25.87
2022-08-22T21:11:40.071Z,25.79
2022-08-22T21:14:46.054Z,25.67
2022-08-22T21:17:47.557Z,25.59
2022-08-22T21:20:49.033Z,25.56
2022-08-22T21:24:01.099Z,25.52
2022-08-22T21:27:03.575Z,25.47
2022-08-22T21:30:09.638Z,25.39
2022-08-22T21:33:23.928Z,25.35
2022-08-22T21:36:29.107Z,25.34
2022-08-22T21:39:35.631Z,25.33
2022-08-22T21:42:40.342Z,25.29
2022-08-22T21:45:44.192Z,25.27
2022-08-22T21:48:59.247Z,25.28
2022-08-22T21:52:00.767Z,25.22
2022-08-22T21:55:36.803Z,25.13
2022-08-22T21:58:38.782Z,25.06
2022-08-22T22:01:42.824Z,25.07
2022-08-22T22:04:47.327Z,24.99
2022-08-22T22:07:48.760Z,24.94
2022-08-22T22:10:53.174Z,24.97
2022-08-22T22:13:54.629Z,24.91
2022-08-22T22:16:56.083Z,24.82
2022-08-22T22:19:57.639Z,24.75
2022-08-22T22:22:59.314Z,24.75
2022-08-22T22:26:04.016Z,24.75
2022-08-22T22:29:05.653Z,24.77
2022-08-22T22:32:10.386Z,24.76
2022-08-22T22:35:13.660Z,24.70
2022-08-22T22:38:15.433Z,24.62
2022-08-22T22:41:19.088Z,24.52
2022-08-22T22:44:21.646Z,24.46
2022-08-22T22:47:28.754Z,24.45
2022-08-22T22:50:30.405Z,24.41
2022-08-22T22:53:38.384Z,24.39
2022-08-22T22:56:41.968Z,24.41
2022-08-22T22:59:49.339Z,24.40
2022-08-22T23:02:52.550Z,24.36
2022-08-22T23:05:53.978Z,24.33
2022-08-22T23:08:55.829Z,24.28
2022-08-22T23:11:57.281Z,24.22
2022-08-22T23:14:58.884Z,24.20
2022-08-22T23:18:00.540Z,24.16
2022-08-22T23:21:28.947Z,24.11
2022-08-22T23:24:31.116Z,24.05
2022-08-22T23:27:32.574Z,24.07
2022-08-22T23:30:34.058Z,23.98
2022-08-22T23:33:35.482Z,23.85
2022-08-22T23:36:38.088Z,23.88
2022-08-22T23:39:39.741Z,23.78
2022-08-22T23:42:41.653Z,23.69
2022-08-22T23:45:43.123Z,23.66
2022-08-22T23:48:44.742Z,23.58
2022-08-22T23:51:47.504Z,23.51
2022-08-22T23:54:50.221Z,23.52
2022-08-22T23:57:55.923Z,23.44
